Valhalla, NY (10595)

11:17 AM EST on December 08, 2016 (GMT -0500)
Valhalla - Harding Ave | | Change Station

Elev 348 ft 41.07 °N, 73.78 °W | Updated 28 seconds ago

Mostly Cloudy
Mostly Cloudy
40.5 °F
Feels Like 40 °F
N
0.0
Wind Variable Wind from East
Gusts 0.0 mph

Today
High -- | Low -- °F
--% Chance of Precip.
Yesterday
High -- | Low -- °F
Precip. -- in
Pressure 29.93 in
Visibility 10.0 miles
Clouds Mostly Cloudy 9000 ft
Windchill 40 °F
Dew Point 30 °F
Humidity 65%
Rainfall 0.04 in
Snow Depth Not available.
7:07 AM 4:26 PM
Waxing Gibbous, 64% visible
METAR KHPN 081556Z VRB05KT 10SM BKN090 04/M03 A2991 RMK AO2 SLP135 T00441033 $
Pressure 29.93 in
Visibility 10.0 miles
Clouds Mostly Cloudy 9000 ft
Windchill 40 °F
Dew Point 30 °F
Humidity 65%
Rainfall 0.04 in
Snow Depth Not available.
7:07 AM 4:26 PM
Waxing Gibbous, 64% visible
METAR KHPN 081556Z VRB05KT 10SM BKN090 04/M03 A2991 RMK AO2 SLP135 T00441033 $

10-Day Weather Forecast

Almanac

Astronomy

Dec. 08, 2016 Rise Set
Actual Time
Civil Twilight
Nautical Twilight
Astronomical Twilight
Moon
Length of Visible Light
Length of Day
Tomorrow will be .
, % of the Moon is Illuminated

Today's Extremes

State Highs State Lows

Community

WunderPhotos

Upload Photos

1,956,274 photos uploaded!

WunderBlog® & News

Nearby

Air Quality

  Air Quality AQ Index Pollutant
Not available.

Snow Depth

Station Depth Elevation

Earthquake Activity

City Distance Mag. Time & Date
Minimum magnitude displayed is 2.5.

Coastal Water Temperatures

Place Temperature

Stations

Nearby Weather Stations

Station Location Temp. Windchill Dew Point Humidity Wind Precip. Elev Updated Type
                   

Watches & Warnings

There are currently no watches in effect.